createdAt,value
2018-12-01T00:00:01.430Z,89.00
2018-12-01T00:02:31.537Z,75.20
2018-12-01T00:05:20.256Z,83.60
2018-12-01T00:07:50.785Z,85.40
2018-12-01T00:10:20.996Z,86.60
2018-12-01T00:12:50.983Z,80.40
2018-12-01T00:15:21.809Z,86.00
2018-12-01T00:17:51.912Z,84.60
2018-12-01T00:20:23.112Z,83.00
2018-12-01T00:22:53.075Z,88.40
2018-12-01T00:25:23.071Z,95.20
2018-12-01T00:27:53.162Z,82.80
2018-12-01T00:30:24.826Z,82.40
2018-12-01T00:32:55.412Z,86.20
2018-12-01T00:35:25.651Z,85.20
2018-12-01T00:37:55.605Z,90.60
2018-12-01T00:40:25.761Z,96.40
2018-12-01T00:42:55.670Z,84.60
2018-12-01T00:45:25.666Z,96.60
2018-12-01T00:47:55.711Z,81.00
2018-12-01T00:50:26.583Z,87.80
2018-12-01T00:52:56.558Z,92.40
2018-12-01T00:55:26.627Z,89.80
2018-12-01T00:57:56.560Z,82.80
2018-12-01T01:00:28.081Z,94.80
2018-12-01T01:02:59.192Z,94.20
2018-12-01T01:05:29.914Z,93.20
2018-12-01T01:08:00.489Z,94.20
2018-12-01T01:10:32.110Z,90.80
2018-12-01T01:13:01.979Z,88.25
2018-12-01T01:15:32.192Z,87.40
2018-12-01T01:18:02.441Z,101.25
2018-12-01T01:20:33.206Z,103.25
2018-12-01T01:23:03.094Z,96.75
2018-12-01T01:25:33.351Z,93.75
2018-12-01T01:28:03.366Z,102.50
2018-12-01T01:30:33.294Z,100.25
2018-12-01T01:33:08.100Z,91.00
2018-12-01T01:35:38.620Z,103.25
2018-12-01T01:38:08.780Z,116.50
2018-12-01T01:40:38.722Z,109.75
2018-12-01T01:43:08.790Z,108.25
2018-12-01T01:45:38.793Z,113.00
2018-12-01T01:48:09.014Z,117.75
2018-12-01T01:50:39.721Z,122.50
2018-12-01T01:53:11.074Z,126.00
2018-12-01T01:55:41.345Z,114.75
2018-12-01T01:58:11.304Z,139.00
2018-12-01T02:00:41.590Z,130.25
2018-12-01T02:03:11.629Z,134.75
2018-12-01T02:05:41.816Z,141.75
2018-12-01T02:08:11.838Z,130.75
2018-12-01T02:10:42.001Z,130.00
2018-12-01T02:13:12.019Z,147.25
2018-12-01T02:15:41.998Z,143.25
2018-12-01T02:18:11.953Z,153.75
2018-12-01T02:20:42.476Z,150.50
2018-12-01T02:23:12.673Z,155.50
2018-12-01T02:25:44.120Z,157.50
2018-12-01T02:28:14.019Z,163.00
2018-12-01T02:30:44.769Z,167.25
2018-12-01T02:33:14.866Z,158.75
2018-12-01T02:35:45.202Z,164.00
2018-12-01T02:38:15.314Z,159.75
2018-12-01T02:40:45.328Z,162.50
2018-12-01T02:43:15.407Z,157.75
2018-12-01T02:45:50.429Z,165.00
2018-12-01T02:48:21.239Z,159.25
2018-12-01T02:50:51.770Z,162.00
2018-12-01T02:53:21.842Z,153.50
2018-12-01T02:55:51.948Z,149.25
2018-12-01T02:58:23.563Z,143.50
2018-12-01T03:00:53.547Z,153.25
2018-12-01T03:03:23.331Z,137.75
2018-12-01T03:05:53.455Z,146.25
2018-12-01T03:08:23.486Z,151.25
2018-12-01T03:10:53.559Z,145.25
2018-12-01T03:13:23.482Z,148.00
2018-12-01T03:15:53.507Z,152.25
2018-12-01T03:18:23.559Z,151.50
2018-12-01T03:20:54.539Z,139.00
2018-12-01T03:23:24.589Z,142.25
2018-12-01T03:25:56.822Z,137.25
2018-12-01T03:28:26.869Z,146.25
2018-12-01T03:30:57.565Z,136.00
2018-12-01T03:33:27.988Z,140.50
2018-12-01T03:35:58.027Z,132.00
2018-12-01T03:38:28.330Z,141.75
2018-12-01T03:40:58.983Z,140.50
2018-12-01T03:43:29.414Z,140.50
2018-12-01T03:45:59.967Z,136.50
2018-12-01T03:48:30.011Z,135.75
2018-12-01T03:51:00.594Z,125.50
2018-12-01T03:53:30.859Z,118.00
2018-12-01T03:56:01.303Z,114.75
2018-12-01T03:58:31.114Z,113.50
2018-12-01T04:01:01.163Z,104.75
2018-12-01T04:03:31.478Z,111.00
2018-12-01T04:06:01.598Z,111.50
2018-12-01T04:08:31.676Z,107.00
2018-12-01T04:11:01.988Z,108.50
2018-12-01T04:13:32.140Z,107.00
2018-12-01T04:16:02.374Z,105.25
2018-12-01T04:18:32.343Z,99.25
2018-12-01T04:21:02.908Z,99.25
2018-12-01T04:23:33.016Z,103.75
2018-12-01T04:26:03.237Z,102.50
2018-12-01T04:28:33.921Z,108.75
2018-12-01T04:31:03.962Z,106.00
2018-12-01T04:33:34.493Z,103.25
2018-12-01T04:36:04.366Z,105.25
2018-12-01T04:38:34.311Z,97.75
2018-12-01T04:41:05.268Z,94.80
2018-12-01T04:43:35.421Z,91.20
2018-12-01T04:46:05.673Z,98.00
2018-12-01T04:48:36.175Z,91.00
2018-12-01T04:51:07.215Z,91.40
2018-12-01T04:53:37.161Z,86.80
2018-12-01T04:56:07.866Z,93.80
2018-12-01T04:58:38.264Z,90.20
2018-12-01T05:01:08.553Z,85.20
2018-12-01T05:03:38.624Z,87.80
2018-12-01T05:08:44.735Z,90.75
2018-12-01T05:11:16.202Z,86.40
2018-12-01T05:13:48.147Z,82.20
2018-12-01T05:16:19.997Z,79.60
2018-12-01T05:18:52.131Z,80.40
2018-12-01T05:21:24.039Z,74.80
2018-12-01T05:23:55.832Z,73.80
2018-12-01T05:26:27.967Z,74.40
2018-12-01T05:28:59.891Z,78.60
2018-12-01T05:31:31.510Z,74.00
2018-12-01T05:34:03.883Z,76.20
2018-12-01T05:36:35.430Z,82.40
2018-12-01T05:39:09.344Z,72.80
2018-12-01T05:41:41.185Z,74.00
2018-12-01T05:44:12.959Z,74.80
2018-12-01T05:46:45.144Z,79.00
2018-12-01T05:49:17.410Z,73.60
2018-12-01T05:51:49.592Z,74.80
2018-12-01T05:54:21.850Z,74.00
2018-12-01T05:56:53.578Z,74.60
2018-12-01T05:59:25.290Z,76.60
2018-12-01T06:01:57.322Z,77.40
2018-12-01T06:04:29.104Z,72.20
2018-12-01T06:07:00.741Z,81.20
2018-12-01T06:09:32.541Z,73.00
2018-12-01T06:12:04.346Z,77.60
2018-12-01T06:14:36.216Z,72.80
2018-12-01T06:17:08.494Z,71.60
2018-12-01T06:19:40.212Z,74.80
2018-12-01T06:22:12.397Z,67.20
2018-12-01T06:24:44.009Z,68.60
2018-12-01T06:27:15.649Z,64.60
2018-12-01T06:29:47.655Z,60.60
2018-12-01T06:32:19.103Z,59.40
2018-12-01T06:34:50.795Z,60.40
2018-12-01T06:37:22.205Z,57.60
2018-12-01T06:39:54.728Z,53.00
2018-12-01T06:42:26.333Z,47.60
2018-12-01T06:44:57.851Z,53.80
2018-12-01T06:47:29.234Z,50.80
2018-12-01T06:50:01.000Z,48.20
2018-12-01T06:52:33.071Z,46.00
2018-12-01T06:55:04.603Z,46.60
2018-12-01T06:57:36.033Z,46.20
2018-12-01T07:00:10.431Z,43.20
2018-12-01T07:02:41.840Z,43.00
2018-12-01T07:05:16.841Z,40.00
2018-12-01T07:07:50.263Z,45.40
2018-12-01T07:10:23.173Z,41.60
2018-12-01T07:12:56.056Z,41.00
2018-12-01T07:15:36.956Z,41.00
2018-12-01T07:18:17.937Z,46.00
2018-12-01T07:20:49.536Z,43.20
2018-12-01T07:23:21.763Z,42.00
2018-12-01T07:25:53.719Z,41.60
2018-12-01T07:28:25.216Z,42.00
2018-12-01T07:30:57.096Z,41.00
2018-12-01T07:33:28.614Z,42.00
2018-12-01T07:36:00.629Z,40.60
2018-12-01T07:38:32.022Z,38.60
2018-12-01T07:41:03.779Z,38.40
2018-12-01T07:43:35.465Z,35.20
2018-12-01T07:46:07.532Z,38.20
2018-12-01T07:48:39.157Z,38.40
2018-12-01T07:51:10.659Z,39.40
2018-12-01T07:53:43.096Z,37.80
2018-12-01T07:56:14.752Z,38.20
2018-12-01T07:58:46.423Z,39.60
2018-12-01T08:01:17.941Z,41.40
2018-12-01T08:03:50.402Z,42.40
2018-12-01T08:06:22.137Z,42.20
2018-12-01T08:08:54.650Z,37.60
2018-12-01T08:11:26.288Z,42.00
2018-12-01T08:13:58.722Z,42.20
2018-12-01T08:16:30.307Z,39.40
2018-12-01T08:19:01.762Z,41.40
2018-12-01T08:21:35.490Z,39.60
2018-12-01T08:24:07.776Z,40.20
2018-12-01T08:26:41.452Z,39.00
2018-12-01T08:29:13.038Z,40.20
2018-12-01T08:31:44.579Z,39.20
2018-12-01T08:34:16.024Z,39.80
2018-12-01T08:36:47.727Z,40.40
2018-12-01T08:39:19.379Z,39.00
2018-12-01T08:41:50.945Z,37.00
2018-12-01T08:44:22.529Z,38.00
2018-12-01T08:46:54.053Z,38.40
2018-12-01T08:49:25.675Z,40.20
2018-12-01T08:51:57.228Z,48.60
2018-12-01T08:54:29.049Z,38.20
2018-12-01T08:57:01.517Z,39.20
2018-12-01T08:59:32.927Z,35.40
2018-12-01T09:02:06.764Z,39.20
2018-12-01T09:04:38.038Z,41.00
2018-12-01T09:07:09.486Z,41.20
2018-12-01T09:09:40.972Z,38.00
2018-12-01T09:12:12.527Z,34.40
2018-12-01T09:14:46.076Z,37.20
2018-12-01T09:17:18.143Z,40.20
2018-12-01T09:19:49.460Z,39.80
2018-12-01T09:22:20.879Z,39.60
2018-12-01T09:24:53.042Z,39.00
2018-12-01T09:27:24.950Z,40.00
2018-12-01T09:29:56.470Z,39.80
2018-12-01T09:32:28.959Z,39.20
2018-12-01T09:35:00.369Z,39.60
2018-12-01T09:37:31.958Z,40.00
2018-12-01T09:40:03.563Z,41.00
2018-12-01T09:42:35.178Z,37.60
2018-12-01T09:45:09.241Z,37.20
2018-12-01T09:47:41.091Z,38.20
2018-12-01T09:50:15.393Z,40.40
2018-12-01T09:52:48.224Z,36.80
2018-12-01T09:55:24.125Z,39.00
2018-12-01T09:57:55.693Z,40.00
2018-12-01T10:00:31.316Z,39.00
2018-12-01T10:03:04.263Z,40.00
2018-12-01T10:05:36.673Z,38.80
2018-12-01T10:08:09.473Z,37.60
2018-12-01T10:10:40.941Z,38.00
2018-12-01T10:13:13.342Z,38.60
2018-12-01T10:15:44.885Z,38.40
2018-12-01T10:18:16.995Z,37.60
2018-12-01T10:20:49.257Z,38.80
2018-12-01T10:23:20.971Z,37.80
2018-12-01T10:25:53.042Z,36.60
2018-12-01T10:28:24.749Z,39.20
2018-12-01T10:30:56.270Z,38.00
2018-12-01T10:33:28.100Z,38.80
2018-12-01T10:35:59.647Z,37.20
2018-12-01T10:38:31.141Z,34.80
2018-12-01T10:41:03.062Z,39.00
2018-12-01T10:43:35.077Z,38.40
2018-12-01T10:46:06.774Z,38.80
2018-12-01T10:48:38.746Z,38.00
2018-12-01T10:51:10.374Z,38.80
2018-12-01T10:53:42.183Z,40.20
2018-12-01T10:56:14.510Z,41.00
2018-12-01T10:58:46.330Z,35.00
2018-12-01T11:01:22.718Z,39.60
2018-12-01T11:03:54.548Z,37.20
2018-12-01T11:06:26.403Z,39.20
2018-12-01T11:08:58.399Z,35.40
2018-12-01T11:11:30.148Z,39.00
2018-12-01T11:14:01.824Z,39.20
2018-12-01T11:16:33.937Z,39.80
2018-12-01T11:19:07.229Z,36.80
2018-12-01T11:21:39.921Z,37.20
2018-12-01T11:24:12.198Z,38.40
2018-12-01T11:26:45.034Z,36.80
2018-12-01T11:29:17.419Z,37.40
2018-12-01T11:31:49.818Z,33.80
2018-12-01T11:34:22.185Z,37.40
2018-12-01T11:36:54.365Z,38.00
2018-12-01T11:39:26.757Z,36.60
2018-12-01T11:42:00.165Z,36.60
2018-12-01T11:44:32.229Z,38.00
2018-12-01T11:47:05.466Z,39.80
2018-12-01T11:49:37.648Z,37.80
2018-12-01T11:52:10.099Z,39.00
2018-12-01T11:54:42.057Z,37.40
2018-12-01T11:57:14.225Z,39.20
2018-12-01T11:59:46.156Z,38.00
2018-12-01T12:02:18.905Z,36.80
2018-12-01T12:04:51.141Z,39.40
2018-12-01T12:07:32.814Z,41.20
2018-12-01T12:10:04.928Z,42.00
2018-12-01T12:12:37.120Z,43.00
2018-12-01T12:15:13.161Z,46.40
2018-12-01T12:17:49.087Z,55.20
2018-12-01T12:20:23.770Z,52.20
2018-12-01T12:22:58.251Z,58.80
2018-12-01T12:25:33.018Z,55.40
2018-12-01T12:28:08.655Z,59.40
2018-12-01T12:30:42.286Z,64.00
2018-12-01T12:33:14.261Z,78.20
2018-12-01T12:35:46.549Z,81.20
2018-12-01T12:38:18.666Z,91.40
2018-12-01T12:40:50.877Z,89.60
2018-12-01T12:43:23.263Z,94.60
2018-12-01T12:45:55.365Z,101.60
2018-12-01T12:48:27.245Z,107.80
2018-12-01T12:50:58.838Z,105.50
2018-12-01T12:53:30.379Z,103.80
2018-12-01T12:56:02.047Z,101.00
2018-12-01T12:58:34.394Z,98.00
2018-12-01T13:01:05.954Z,91.00
2018-12-01T13:03:37.728Z,90.40
2018-12-01T13:06:09.495Z,87.80
2018-12-01T13:08:41.151Z,89.20
2018-12-01T13:11:12.843Z,98.80
2018-12-01T13:13:44.344Z,95.40
2018-12-01T13:16:16.207Z,93.40
2018-12-01T13:18:47.683Z,95.00
2018-12-01T13:21:20.414Z,93.80
2018-12-01T13:23:52.132Z,90.40
2018-12-01T13:26:24.262Z,97.00
2018-12-01T13:28:56.249Z,94.40
2018-12-01T13:31:28.073Z,91.20
2018-12-01T13:34:02.846Z,95.80
2018-12-01T13:36:36.704Z,85.80
2018-12-01T13:39:10.941Z,87.40
2018-12-01T13:41:42.661Z,94.40
2018-12-01T13:44:14.393Z,101.60
2018-12-01T13:46:45.931Z,105.25
2018-12-01T13:49:17.369Z,114.25
2018-12-01T13:51:48.985Z,117.00
2018-12-01T13:54:20.445Z,113.75
2018-12-01T13:56:52.023Z,121.75
2018-12-01T13:59:24.178Z,132.25
2018-12-01T14:01:56.099Z,133.00
2018-12-01T14:04:27.487Z,145.50
2018-12-01T14:06:59.037Z,154.00
2018-12-01T14:09:30.660Z,168.00
2018-12-01T14:12:02.273Z,168.00
2018-12-01T14:14:34.086Z,180.75
2018-12-01T14:17:05.637Z,184.75
2018-12-01T14:19:37.075Z,180.75
2018-12-01T14:22:09.149Z,183.75
2018-12-01T14:24:40.826Z,177.75
2018-12-01T14:27:13.364Z,179.00
2018-12-01T14:29:45.269Z,173.75
2018-12-01T14:32:16.745Z,177.50
2018-12-01T14:34:48.147Z,164.00
2018-12-01T14:37:19.791Z,155.25
2018-12-01T14:39:51.331Z,165.00
2018-12-01T14:42:23.160Z,203.20
2018-12-01T14:44:54.606Z,165.00
2018-12-01T14:47:26.154Z,165.25
2018-12-01T14:49:57.739Z,166.50
2018-12-01T14:52:29.803Z,164.50
2018-12-01T14:55:01.663Z,169.25
2018-12-01T14:57:33.485Z,166.50
2018-12-01T15:00:05.606Z,170.25
2018-12-01T15:02:37.529Z,167.75
2018-12-01T15:05:09.443Z,163.00
2018-12-01T15:07:40.902Z,160.00
2018-12-01T15:10:15.519Z,159.25
2018-12-01T15:12:46.999Z,157.50
2018-12-01T15:15:20.614Z,151.00
2018-12-01T15:17:52.379Z,150.75
2018-12-01T15:20:24.941Z,151.25
2018-12-01T15:22:57.969Z,136.25
2018-12-01T15:25:31.310Z,140.75
2018-12-01T15:28:03.009Z,143.00
2018-12-01T15:30:35.287Z,131.75
2018-12-01T15:33:10.747Z,130.50
2018-12-01T15:35:43.641Z,117.50
2018-12-01T15:38:15.248Z,116.25
2018-12-01T15:40:52.979Z,118.00
2018-12-01T15:43:24.673Z,107.50
2018-12-01T15:45:56.403Z,111.50
2018-12-01T15:48:28.158Z,114.50
2018-12-01T15:50:59.530Z,114.00
2018-12-01T15:53:31.210Z,110.75
2018-12-01T15:56:04.126Z,114.25
2018-12-01T15:58:35.707Z,111.50
2018-12-01T16:01:07.752Z,117.75
2018-12-01T16:03:40.290Z,125.00
2018-12-01T16:06:12.481Z,121.50
2018-12-01T16:08:44.639Z,117.00
2018-12-01T16:11:16.654Z,126.50
2018-12-01T16:13:48.624Z,131.00
2018-12-01T16:16:20.646Z,132.00
2018-12-01T16:18:52.804Z,133.00
2018-12-01T16:21:24.657Z,142.00
2018-12-01T16:23:56.749Z,143.75
2018-12-01T16:26:28.291Z,155.75
2018-12-01T16:29:01.061Z,164.50
2018-12-01T16:31:33.555Z,163.00
2018-12-01T16:34:05.796Z,178.50
2018-12-01T16:36:37.925Z,193.00
2018-12-01T16:39:12.528Z,193.25
2018-12-01T16:41:44.720Z,204.40
2018-12-01T16:44:16.800Z,220.60
2018-12-01T16:46:48.651Z,221.50
2018-12-01T16:49:20.614Z,219.60
2018-12-01T16:51:52.736Z,207.40
2018-12-01T16:54:24.757Z,219.00
2018-12-01T16:56:57.085Z,221.20
2018-12-01T16:59:29.216Z,218.75
2018-12-01T17:02:01.530Z,230.50
2018-12-01T17:04:33.351Z,227.50
2018-12-01T17:07:05.854Z,218.00
2018-12-01T17:09:39.180Z,218.00
2018-12-01T17:12:10.932Z,225.00
2018-12-01T17:14:43.263Z,227.25
2018-12-01T17:17:15.038Z,224.00
2018-12-01T17:19:47.117Z,232.00
2018-12-01T17:22:18.906Z,226.50
2018-12-01T17:24:50.956Z,229.25
2018-12-01T17:27:22.756Z,219.00
2018-12-01T17:29:54.916Z,225.75
2018-12-01T17:32:28.098Z,225.80
2018-12-01T17:35:00.316Z,228.00
2018-12-01T17:37:31.887Z,231.00
2018-12-01T17:40:03.586Z,227.00
2018-12-01T17:42:35.325Z,224.50
2018-12-01T17:45:08.173Z,222.60
2018-12-01T17:47:39.958Z,231.20
2018-12-01T17:50:14.180Z,229.00
2018-12-01T17:52:50.489Z,229.50
2018-12-01T17:55:22.302Z,228.40
2018-12-01T17:57:54.642Z,223.75
2018-12-01T18:00:28.606Z,228.75
2018-12-01T18:03:02.643Z,226.25
2018-12-01T18:05:37.437Z,208.40
2018-12-01T18:08:12.100Z,232.25
2018-12-01T18:10:44.692Z,234.00
2018-12-01T18:13:16.851Z,232.75
2018-12-01T18:15:48.803Z,234.80
2018-12-01T18:18:20.374Z,231.25
2018-12-01T18:20:52.516Z,224.00
2018-12-01T18:23:24.628Z,222.25
2018-12-01T18:25:57.573Z,224.50
2018-12-01T18:28:33.745Z,230.25
2018-12-01T18:31:08.819Z,217.60
2018-12-01T18:33:43.539Z,210.00
2018-12-01T18:36:17.238Z,227.40
2018-12-01T18:38:50.690Z,222.60
2018-12-01T18:41:22.862Z,228.40
2018-12-01T18:43:54.655Z,225.00
2018-12-01T18:46:26.814Z,225.00
2018-12-01T18:48:58.671Z,227.20
2018-12-01T18:51:30.441Z,218.00
2018-12-01T18:54:02.025Z,213.00
2018-12-01T18:56:34.248Z,212.00
2018-12-01T18:59:06.137Z,216.40
2018-12-01T19:01:37.768Z,217.60
2018-12-01T19:04:10.398Z,210.40
2018-12-01T19:06:43.003Z,215.80
2018-12-01T19:09:15.751Z,202.20
2018-12-01T19:11:47.739Z,207.60
2018-12-01T19:14:21.048Z,208.60
2018-12-01T19:16:52.973Z,207.80
2018-12-01T19:19:25.413Z,210.00
2018-12-01T19:21:58.880Z,215.20
2018-12-01T19:24:30.735Z,207.00
2018-12-01T19:27:02.724Z,202.75
2018-12-01T19:29:34.577Z,208.60
2018-12-01T19:32:06.665Z,199.20
2018-12-01T19:34:39.101Z,201.25
2018-12-01T19:37:11.182Z,206.00
2018-12-01T19:39:43.414Z,200.50
2018-12-01T19:42:15.218Z,206.00
2018-12-01T19:44:46.871Z,197.00
2018-12-01T19:47:18.697Z,209.25
2018-12-01T19:49:50.852Z,204.50
2018-12-01T19:52:22.767Z,196.75
2018-12-01T19:54:55.072Z,200.00
2018-12-01T19:57:27.068Z,195.50
2018-12-01T19:59:58.902Z,203.00
2018-12-01T20:02:32.061Z,185.50
2018-12-01T20:05:04.417Z,196.25
2018-12-01T20:07:36.516Z,192.00
2018-12-01T20:10:12.422Z,199.50
2018-12-01T20:12:44.944Z,196.75
2018-12-01T20:15:20.897Z,194.75
2018-12-01T20:17:53.052Z,189.25
2018-12-01T20:20:24.590Z,195.50
2018-12-01T20:22:56.662Z,190.50
2018-12-01T20:25:28.789Z,199.50
2018-12-01T20:28:01.753Z,188.50
2018-12-01T20:30:33.851Z,192.25
2018-12-01T20:33:08.397Z,194.25
2018-12-01T20:35:48.222Z,194.75
2018-12-01T20:38:26.160Z,195.75
2018-12-01T20:40:57.947Z,183.00
2018-12-01T20:43:29.945Z,197.25
2018-12-01T20:46:01.565Z,198.25
2018-12-01T20:48:56.878Z,189.50
2018-12-01T20:51:28.617Z,197.75
2018-12-01T20:54:07.380Z,197.75
2018-12-01T20:56:42.302Z,187.00
2018-12-01T20:59:17.384Z,188.75
2018-12-01T21:01:49.622Z,192.25
2018-12-01T21:04:21.581Z,192.00
2018-12-01T21:06:54.135Z,195.75
2018-12-01T21:09:26.048Z,188.00
2018-12-01T21:11:57.788Z,198.50
2018-12-01T21:14:29.485Z,192.75
2018-12-01T21:17:01.854Z,189.25
2018-12-01T21:19:34.372Z,193.00
2018-12-01T21:22:08.462Z,190.50
2018-12-01T21:24:40.480Z,193.75
2018-12-01T21:27:13.409Z,191.75
2018-12-01T21:29:45.111Z,187.50
2018-12-01T21:32:17.333Z,188.50
2018-12-01T21:34:49.493Z,191.25
2018-12-01T21:37:22.074Z,187.50
2018-12-01T21:39:53.972Z,187.25
2018-12-01T21:42:26.205Z,181.75
2018-12-01T21:44:58.181Z,177.25
2018-12-01T21:47:29.782Z,178.75
2018-12-01T21:50:02.054Z,168.25
2018-12-01T21:52:34.254Z,167.00
2018-12-01T21:55:06.298Z,165.50
2018-12-01T21:57:37.978Z,180.75
2018-12-01T22:00:32.778Z,173.25
2018-12-01T22:03:08.698Z,178.75
2018-12-01T22:05:44.727Z,171.75
2018-12-01T22:08:17.384Z,169.50
2018-12-01T22:10:52.019Z,170.75
2018-12-01T22:13:23.888Z,174.75
2018-12-01T22:15:56.166Z,173.25
2018-12-01T22:18:28.145Z,178.50
2018-12-01T22:20:59.921Z,177.75
2018-12-01T22:23:32.732Z,176.75
2018-12-01T22:26:05.097Z,162.25
2018-12-01T22:28:37.287Z,174.00
2018-12-01T22:31:09.006Z,168.00
2018-12-01T22:33:41.030Z,169.50
2018-12-01T22:36:13.241Z,169.00
2018-12-01T22:38:45.824Z,166.00
2018-12-01T22:41:17.712Z,166.25
2018-12-01T22:43:49.875Z,165.50
2018-12-01T22:46:21.599Z,166.00
2018-12-01T22:48:53.603Z,170.25
2018-12-01T22:51:25.618Z,164.50
2018-12-01T22:53:57.383Z,164.25
2018-12-01T22:56:29.566Z,162.75
2018-12-01T22:59:01.305Z,165.50
2018-12-01T23:01:33.541Z,165.00
2018-12-01T23:04:05.047Z,166.25
2018-12-01T23:06:36.860Z,162.25
2018-12-01T23:09:10.542Z,162.00
2018-12-01T23:11:42.317Z,162.75
2018-12-01T23:14:14.375Z,161.00
2018-12-01T23:16:46.035Z,158.75
2018-12-01T23:19:17.816Z,161.50
2018-12-01T23:21:49.486Z,155.25
2018-12-01T23:24:21.793Z,158.25
2018-12-01T23:26:53.389Z,160.00
2018-12-01T23:29:25.321Z,160.00
2018-12-01T23:31:57.486Z,156.75
2018-12-01T23:34:29.683Z,157.25
2018-12-01T23:37:01.601Z,153.50
2018-12-01T23:39:33.734Z,154.00
2018-12-01T23:42:05.449Z,143.75
2018-12-01T23:44:37.260Z,151.75
2018-12-01T23:47:08.931Z,149.75
2018-12-01T23:49:40.765Z,152.00
2018-12-01T23:52:12.701Z,152.00
2018-12-01T23:54:44.315Z,155.25
2018-12-01T23:57:16.073Z,154.25
2018-12-01T23:59:47.856Z,163.25
